Time;durP1;ratioP1;P1;durP2;ratioP2;P2;SDS_P1;SDS_P2;PMS_P1;PMS_P2;Temp;Humidity;BMP_temperature;BMP_pressure;BME280_temperature;BME280_humidity;BME280_pressure;Samples;Min_cycle;Max_cycle;Signal;HPM_P1;HPM_P2
2022/07/24 00:02:17;;;;;;;5.88;5.40;;;;;;;20.08;62.26;96122.78;5085931;28;20016;-69
2022/07/24 00:04:43;;;;;;;6.35;5.78;;;;;;;20.03;61.96;96132.22;5078270;28;20680;-69
2022/07/24 00:07:08;;;;;;;5.88;5.13;;;;;;;20.00;62.32;96129.91;5084886;28;20016;-68
2022/07/24 00:09:33;;;;;;;5.75;5.25;;;;;;;20.04;61.88;96117.84;5087298;28;20032;-68
2022/07/24 00:11:59;;;;;;;5.88;5.38;;;;;;;20.11;61.98;96125.88;5066391;28;20017;-69
2022/07/24 00:14:25;;;;;;;5.97;5.57;;;;;;;20.05;62.54;96121.31;5079179;28;20017;-69
2022/07/24 00:16:50;;;;;;;5.97;5.38;;;;;;;19.98;63.25;96121.25;5084243;28;20046;-69
2022/07/24 00:19:16;;;;;;;6.55;5.40;;;;;;;19.90;64.02;96121.34;5085591;28;20593;-68
2022/07/24 00:21:41;;;;;;;6.20;5.57;;;;;;;19.75;64.48;96119.56;5086257;28;20020;-69
2022/07/24 00:24:08;;;;;;;9.88;5.70;;;;;;;19.68;64.83;96124.00;5085435;28;20498;-68
2022/07/24 00:26:34;;;;;;;5.50;5.00;;;;;;;19.73;64.57;96116.25;5086890;28;20565;-68
2022/07/24 00:28:59;;;;;;;6.40;5.90;;;;;;;19.69;64.44;96124.84;5085030;28;20016;-69
2022/07/24 00:31:25;;;;;;;7.07;5.75;;;;;;;19.65;64.97;96119.06;5084004;28;20020;-69
2022/07/24 00:33:50;;;;;;;5.78;5.28;;;;;;;19.59;65.10;96112.63;5061143;28;20055;-69
2022/07/24 00:36:16;;;;;;;7.35;5.45;;;;;;;19.58;66.02;96126.97;5086683;28;20015;-69
2022/07/24 00:38:42;;;;;;;6.15;5.65;;;;;;;19.59;65.11;96114.47;5084604;28;20364;-69
2022/07/24 00:41:07;;;;;;;6.30;5.70;;;;;;;19.57;65.35;96114.66;5085477;28;20487;-69
2022/07/24 00:43:33;;;;;;;5.53;5.13;;;;;;;19.56;65.98;96114.81;5087726;28;20692;-69
2022/07/24 00:45:58;;;;;;;5.63;5.20;;;;;;;19.60;65.49;96113.44;5083405;28;20024;-69
2022/07/24 00:48:24;;;;;;;5.78;5.28;;;;;;;19.59;65.68;96111.81;5079959;28;20055;-69
2022/07/24 00:50:49;;;;;;;10.30;5.90;;;;;;;19.54;65.95;96111.50;5089359;28;20023;-69
2022/07/24 00:53:15;;;;;;;6.20;5.70;;;;;;;19.59;65.38;96109.13;5088950;28;20031;-69
2022/07/24 00:55:41;;;;;;;5.97;5.50;;;;;;;19.60;65.90;96105.44;5086470;28;20038;-69
2022/07/24 00:58:07;;;;;;;7.72;5.53;;;;;;;19.57;66.00;96106.63;5088864;28;20040;-69
2022/07/24 01:00:32;;;;;;;6.07;5.60;;;;;;;19.62;65.44;96106.06;5087310;28;20027;-68
2022/07/24 01:02:58;;;;;;;7.53;5.80;;;;;;;19.59;65.73;96114.47;5088099;28;20035;-69
2022/07/24 01:05:24;;;;;;;6.00;5.47;;;;;;;19.55;65.98;96110.50;5087208;28;20133;-69
2022/07/24 01:07:49;;;;;;;6.95;6.00;;;;;;;19.49;67.09;96113.94;5090071;28;20120;-69
2022/07/24 01:10:14;;;;;;;6.25;5.75;;;;;;;19.47;66.53;96112.28;5089350;28;20428;-69
2022/07/24 01:12:41;;;;;;;6.93;6.25;;;;;;;19.47;66.38;96106.13;5090125;28;20120;-69
2022/07/24 01:15:09;;;;;;;6.85;6.28;;;;;;;19.45;66.87;96108.13;5086018;28;20035;-69
2022/07/24 01:17:36;;;;;;;7.07;6.45;;;;;;;19.45;67.25;96108.97;5087546;28;21352;-69
2022/07/24 01:20:05;;;;;;;6.35;5.28;;;;;;;19.41;67.86;96102.34;5088692;28;20039;-69
2022/07/24 01:22:30;;;;;;;6.05;5.63;;;;;;;19.41;67.86;96106.84;5086041;28;20020;-69
2022/07/24 01:24:56;;;;;;;8.35;6.00;;;;;;;19.40;67.92;96098.03;5089174;28;20022;-69
2022/07/24 01:27:22;;;;;;;6.22;5.80;;;;;;;19.37;68.13;96106.41;5087661;28;20020;-69
2022/07/24 01:29:48;;;;;;;7.22;6.57;;;;;;;19.29;68.08;96095.84;5088048;28;20103;-69
2022/07/24 01:32:13;;;;;;;6.32;5.68;;;;;;;19.25;67.99;96099.91;5086478;28;20156;-69
2022/07/24 01:34:39;;;;;;;6.25;5.75;;;;;;;19.20;68.58;96104.97;5082208;28;20044;-69
2022/07/24 01:37:04;;;;;;;7.97;5.85;;;;;;;19.13;69.06;96102.22;5088379;28;20023;-70
2022/07/24 01:39:29;;;;;;;6.70;6.10;;;;;;;19.10;69.52;96100.72;5088386;28;20032;-69
2022/07/24 01:41:55;;;;;;;6.03;5.45;;;;;;;19.07;69.01;96101.09;5089447;28;20020;-69
2022/07/24 01:44:20;;;;;;;6.70;6.20;;;;;;;18.96;69.92;96096.22;5081346;28;20048;-69
2022/07/24 01:46:46;;;;;;;7.10;6.40;;;;;;;18.90;70.00;96101.28;5086776;28;20024;-69
2022/07/24 01:49:12;;;;;;;6.53;6.00;;;;;;;18.94;69.76;96091.06;5086471;28;20454;-69
2022/07/24 01:51:37;;;;;;;7.43;6.25;;;;;;;18.87;71.79;96082.16;5087873;28;20025;-68
2022/07/24 01:54:03;;;;;;;8.77;6.45;;;;;;;18.81;70.82;96085.56;5088055;28;20030;-69
2022/07/24 01:56:30;;;;;;;7.80;6.50;;;;;;;18.75;71.08;96081.78;5086638;28;20024;-68
2022/07/24 01:58:55;;;;;;;7.50;6.72;;;;;;;18.76;70.64;96084.25;5087404;28;20059;-69
2022/07/24 02:01:20;;;;;;;7.05;6.55;;;;;;;18.74;71.43;96085.47;5085386;28;20481;-68
2022/07/24 02:03:46;;;;;;;7.15;5.85;;;;;;;18.72;71.07;96085.63;5087958;28;20036;-69
2022/07/24 02:06:12;;;;;;;7.00;6.20;;;;;;;18.81;70.50;96078.38;5087842;28;20339;-68
2022/07/24 02:08:37;;;;;;;6.82;6.30;;;;;;;18.81;70.86;96078.38;5088457;28;20039;-69
2022/07/24 02:11:03;;;;;;;9.02;6.45;;;;;;;18.75;71.50;96081.78;5089257;28;20036;-69
2022/07/24 02:13:29;;;;;;;7.38;6.68;;;;;;;18.70;71.53;96073.53;5084185;28;20029;-69
2022/07/24 02:15:54;;;;;;;6.97;6.25;;;;;;;18.67;72.55;96077.38;5081261;28;20032;-69
2022/07/24 02:18:19;;;;;;;9.90;6.25;;;;;;;18.60;72.79;96077.25;5085813;28;20020;-68
2022/07/24 02:20:45;;;;;;;6.93;6.22;;;;;;;18.54;72.80;96074.50;5086526;28;20078;-69
2022/07/24 02:23:10;;;;;;;6.78;6.18;;;;;;;18.49;73.24;96069.72;5083783;28;20076;-68
2022/07/24 02:25:35;;;;;;;6.95;5.90;;;;;;;18.50;72.83;96073.22;5087349;28;20081;-69
2022/07/24 02:28:01;;;;;;;7.63;7.03;;;;;;;18.48;72.75;96073.41;5088914;28;20031;-68
2022/07/24 02:30:26;;;;;;;8.05;6.78;;;;;;;18.50;72.72;96074.06;5083928;28;20023;-69
2022/07/24 02:32:52;;;;;;;7.65;6.60;;;;;;;18.57;72.10;96076.81;5086935;28;20110;-68
2022/07/24 02:35:17;;;;;;;7.32;6.70;;;;;;;18.59;72.25;96078.28;5085494;28;20485;-69
2022/07/24 02:37:44;;;;;;;6.65;6.18;;;;;;;18.58;72.12;96078.47;5069352;28;20510;-68
2022/07/24 02:40:10;;;;;;;8.32;7.53;;;;;;;18.54;72.56;96080.66;5087967;28;20023;-69
2022/07/24 02:42:37;;;;;;;7.07;6.38;;;;;;;18.57;72.35;96079.50;5081703;28;20055;-68
2022/07/24 02:45:05;;;;;;;6.93;6.47;;;;;;;18.60;72.24;96079.94;5088252;28;20028;-69
2022/07/24 02:47:30;;;;;;;6.90;6.22;;;;;;;18.57;72.40;96080.31;5081723;28;20063;-69
2022/07/24 02:49:55;;;;;;;7.70;6.88;;;;;;;18.48;72.82;96081.41;5083308;28;20748;-69
2022/07/24 02:52:21;;;;;;;6.80;6.15;;;;;;;18.46;72.80;96080.78;5081978;28;20027;-68
2022/07/24 02:54:46;;;;;;;7.25;6.60;;;;;;;18.45;73.14;96071.94;5067860;28;20034;-68
2022/07/24 02:57:12;;;;;;;7.03;6.43;;;;;;;18.41;73.17;96075.13;5068903;28;20048;-68
2022/07/24 02:59:37;;;;;;;7.47;6.88;;;;;;;18.35;73.49;96078.53;5085825;28;20467;-69
2022/07/24 03:02:02;;;;;;;7.28;6.68;;;;;;;18.26;74.71;96075.97;5083824;28;20471;-69
2022/07/24 03:04:28;;;;;;;7.10;6.60;;;;;;;18.25;74.10;96071.63;5089516;28;20030;-69
2022/07/24 03:06:53;;;;;;;7.22;6.55;;;;;;;18.17;75.08;96075.19;5061347;28;20047;-68
2022/07/24 03:09:19;;;;;;;6.80;6.10;;;;;;;18.19;74.38;96075.00;5087046;28;20039;-68
2022/07/24 03:11:44;;;;;;;7.15;6.55;;;;;;;18.19;74.89;96077.66;5089523;28;20524;-68
2022/07/24 03:14:09;;;;;;;7.93;7.32;;;;;;;18.10;75.18;96084.91;5086008;28;20032;-68
2022/07/24 03:16:35;;;;;;;6.85;6.43;;;;;;;18.09;75.10;96077.91;5072043;28;20012;-69
2022/07/24 03:19:00;;;;;;;7.68;6.97;;;;;;;18.12;74.87;96076.75;5088398;28;20035;-69
2022/07/24 03:21:25;;;;;;;7.13;6.53;;;;;;;18.13;75.07;96079.25;5083280;28;20075;-68
2022/07/24 03:23:51;;;;;;;10.07;7.70;;;;;;;18.14;75.32;96086.22;5086355;28;20459;-68
2022/07/24 03:26:16;;;;;;;9.50;6.57;;;;;;;18.19;75.31;96083.00;5089185;28;20028;-69
2022/07/24 03:28:41;;;;;;;7.90;7.28;;;;;;;18.13;75.29;96079.25;5089133;28;20059;-68
2022/07/24 03:31:07;;;;;;;8.75;6.55;;;;;;;18.09;75.76;96088.56;5089437;28;20491;-68
2022/07/24 03:33:33;;;;;;;8.23;7.38;;;;;;;18.10;75.04;96084.91;5089340;28;20442;-68
2022/07/24 03:35:59;;;;;;;7.90;7.07;;;;;;;18.10;75.37;96086.75;5089096;28;20036;-69
2022/07/24 03:38:24;;;;;;;7.55;6.90;;;;;;;18.10;75.53;96089.41;5089319;28;20024;-69
2022/07/24 03:40:49;;;;;;;8.10;7.50;;;;;;;18.10;75.87;96090.22;5089285;28;20040;-68
2022/07/24 03:43:15;;;;;;;7.78;7.00;;;;;;;18.06;76.06;96091.59;5089196;28;20063;-68
2022/07/24 03:45:40;;;;;;;7.75;7.05;;;;;;;18.01;76.54;96097.47;5072961;28;20472;-68
2022/07/24 03:48:06;;;;;;;7.85;7.05;;;;;;;17.95;76.88;96094.66;5068876;28;20036;-68
2022/07/24 03:50:31;;;;;;;7.72;7.13;;;;;;;17.91;76.73;96091.53;5069139;28;20020;-68
2022/07/24 03:52:56;;;;;;;7.82;6.63;;;;;;;17.93;76.43;96088.69;5068709;28;20710;-68
2022/07/24 03:55:22;;;;;;;7.45;6.88;;;;;;;17.94;76.41;96091.16;5069196;28;20074;-68
2022/07/24 03:57:48;;;;;;;8.88;8.18;;;;;;;17.91;77.14;96091.53;5083172;28;20499;-68
2022/07/24 04:00:14;;;;;;;8.07;7.38;;;;;;;17.94;76.52;96087.69;5089096;28;20075;-68
2022/07/24 04:02:40;;;;;;;7.47;6.90;;;;;;;17.90;77.65;96089.88;5088992;28;20048;-68
2022/07/24 04:05:08;;;;;;;7.72;7.03;;;;;;;17.73;78.05;96095.31;5088744;28;20373;-68
2022/07/24 04:07:35;;;;;;;9.15;8.30;;;;;;;17.70;78.18;96100.19;5089113;28;20030;-68
2022/07/24 04:10:01;;;;;;;8.13;7.43;;;;;;;17.73;77.82;96099.81;5091745;28;20024;-68
2022/07/24 04:12:26;;;;;;;9.85;8.00;;;;;;;17.73;77.42;96097.16;5093067;28;20028;-68
2022/07/24 04:14:52;;;;;;;8.38;7.65;;;;;;;17.72;78.03;96098.97;5092790;28;20494;-68
2022/07/24 04:17:17;;;;;;;7.70;7.15;;;;;;;17.67;78.21;96101.34;5092932;28;20456;-68
2022/07/24 04:19:42;;;;;;;7.78;7.07;;;;;;;17.59;79.44;96098.75;5075798;28;20044;-68
2022/07/24 04:22:08;;;;;;;8.02;7.43;;;;;;;17.48;80.09;96099.97;5072136;28;20044;-68
2022/07/24 04:24:33;;;;;;;8.20;7.00;;;;;;;17.46;79.06;96101.97;5063824;28;20043;-68
2022/07/24 04:26:59;;;;;;;8.05;6.43;;;;;;;17.49;79.23;96103.47;5071801;28;20412;-68
2022/07/24 04:29:24;;;;;;;9.95;7.63;;;;;;;17.44;79.62;96107.47;5072120;28;20020;-68
2022/07/24 04:31:49;;;;;;;8.18;7.57;;;;;;;17.41;79.42;96107.81;5072493;28;20024;-67
2022/07/24 04:34:15;;;;;;;12.93;7.63;;;;;;;17.35;80.54;96111.16;5071819;28;20027;-68
2022/07/24 04:36:40;;;;;;;10.60;7.60;;;;;;;17.41;80.15;96107.81;5071897;28;20020;-68
2022/07/24 04:39:05;;;;;;;8.88;8.13;;;;;;;17.40;80.09;96105.34;5071862;28;20016;-68
2022/07/24 04:41:31;;;;;;;12.40;11.10;;;;;;;17.45;80.25;96108.28;5072249;28;20020;-67
2022/07/24 04:43:56;;;;;;;8.82;8.13;;;;;;;17.48;79.70;96113.28;5071787;28;20021;-67
2022/07/24 04:46:21;;;;;;;9.70;7.40;;;;;;;17.50;79.80;96105.09;5072010;28;20017;-68
2022/07/24 04:48:47;;;;;;;8.38;7.63;;;;;;;17.42;80.69;96103.31;5071652;28;20051;-67
2022/07/24 04:51:13;;;;;;;8.25;7.53;;;;;;;17.42;80.68;96106.81;5072827;28;20031;-68
2022/07/24 04:53:38;;;;;;;9.38;8.35;;;;;;;17.38;80.92;96110.00;5071768;28;20453;-68
2022/07/24 04:56:04;;;;;;;9.00;8.20;;;;;;;17.41;80.91;96110.50;5071029;28;20021;-68
2022/07/24 04:58:29;;;;;;;8.60;7.82;;;;;;;17.39;80.43;96109.00;5091655;28;20069;-68
2022/07/24 05:00:55;;;;;;;9.82;8.10;;;;;;;17.33;81.30;96115.84;5091609;28;20024;-68
2022/07/24 05:03:20;;;;;;;8.80;7.93;;;;;;;17.31;81.74;96123.16;5091851;28;20395;-67
2022/07/24 05:05:45;;;;;;;8.88;8.02;;;;;;;17.42;80.39;96116.63;5091681;28;20029;-67
2022/07/24 05:08:11;;;;;;;9.15;8.45;;;;;;;17.36;81.85;96118.19;5091744;28;20035;-67
2022/07/24 05:10:36;;;;;;;9.65;8.43;;;;;;;17.36;81.92;96118.19;5091694;28;20020;-68
2022/07/24 05:13:01;;;;;;;8.07;7.28;;;;;;;17.42;80.82;96114.81;5091543;28;20106;-67
2022/07/24 05:15:27;;;;;;;9.00;8.30;;;;;;;17.47;80.98;96123.09;5091732;28;20024;-67
2022/07/24 05:17:52;;;;;;;9.52;8.63;;;;;;;17.52;81.14;96127.06;5092115;28;20035;-68
2022/07/24 05:20:18;;;;;;;9.48;8.57;;;;;;;17.52;82.41;96129.72;5072588;28;20024;-67
2022/07/24 05:22:43;;;;;;;8.65;7.85;;;;;;;17.49;82.47;96130.06;5091467;28;20043;-67
2022/07/24 05:25:09;;;;;;;9.60;8.82;;;;;;;17.51;81.96;96128.91;5090989;28;20081;-67
2022/07/24 05:27:35;;;;;;;9.40;8.60;;;;;;;17.64;81.92;96130.16;5091646;28;20107;-67
2022/07/24 05:30:00;;;;;;;8.52;7.82;;;;;;;17.78;82.07;96131.22;5091306;28;20036;-67
2022/07/24 05:32:26;;;;;;;9.85;8.90;;;;;;;17.95;81.55;96127.44;5091361;28;20024;-68
2022/07/24 05:34:51;;;;;;;9.20;8.30;;;;;;;18.09;79.99;96130.38;5091211;28;20056;-68
2022/07/24 05:37:16;;;;;;;9.68;8.80;;;;;;;18.22;79.69;96119.13;5091161;28;20055;-67
2022/07/24 05:39:42;;;;;;;8.85;7.97;;;;;;;18.32;78.65;96122.34;5091107;28;20078;-67
2022/07/24 05:42:07;;;;;;;9.10;8.20;;;;;;;18.41;78.44;96113.28;5091267;28;20031;-68
2022/07/24 05:44:33;;;;;;;9.65;8.85;;;;;;;18.50;78.13;96122.03;5090790;28;20066;-67
2022/07/24 05:46:58;;;;;;;9.50;8.63;;;;;;;18.61;77.86;96123.44;5091008;28;20111;-67
2022/07/24 05:49:23;;;;;;;8.98;8.10;;;;;;;18.71;77.47;96129.31;5091140;28;20045;-68
2022/07/24 05:51:49;;;;;;;9.70;8.80;;;;;;;18.75;77.45;96116.47;5091314;28;20023;-68
2022/07/24 05:54:14;;;;;;;10.00;9.05;;;;;;;18.84;76.84;96111.88;5090616;28;20035;-67
2022/07/24 05:56:40;;;;;;;9.30;8.43;;;;;;;18.92;76.85;96103.75;5089702;28;20043;-67
2022/07/24 05:59:05;;;;;;;8.63;7.93;;;;;;;19.00;76.31;96101.00;5091073;28;20024;-68
2022/07/24 06:01:32;;;;;;;8.75;7.97;;;;;;;19.04;76.28;96106.81;5090746;28;20043;-68
2022/07/24 06:03:58;;;;;;;8.77;8.18;;;;;;;19.15;75.51;96102.84;5090576;28;20112;-68
2022/07/24 06:06:23;;;;;;;8.85;8.15;;;;;;;19.28;74.60;96097.69;5081299;28;20131;-68
2022/07/24 06:08:48;;;;;;;9.80;9.00;;;;;;;19.40;74.39;96100.69;5070367;28;20079;-67
2022/07/24 06:11:14;;;;;;;9.55;8.63;;;;;;;19.54;73.51;96101.69;5070199;28;20036;-67
2022/07/24 06:13:39;;;;;;;8.60;7.80;;;;;;;19.71;72.38;96099.59;5070039;28;20074;-68
2022/07/24 06:16:05;;;;;;;8.57;7.78;;;;;;;19.84;71.50;96096.22;5069828;28;20365;-68
2022/07/24 06:18:30;;;;;;;10.98;8.50;;;;;;;20.00;71.42;96092.50;5070139;28;20028;-68
2022/07/24 06:20:56;;;;;;;8.55;7.38;;;;;;;20.17;71.34;96100.25;5069729;28;20024;-68
2022/07/24 06:23:21;;;;;;;8.95;8.15;;;;;;;20.33;70.76;96101.81;5070038;28;20479;-67
2022/07/24 06:25:46;;;;;;;13.82;8.40;;;;;;;20.50;70.10;96099.69;5069828;28;20510;-68
2022/07/24 06:28:12;;;;;;;8.57;7.75;;;;;;;20.70;68.75;96107.84;5069861;28;20024;-68
2022/07/24 06:30:37;;;;;;;9.05;7.78;;;;;;;20.95;68.53;96101.25;5069644;28;20025;-67
2022/07/24 06:33:03;;;;;;;8.27;7.60;;;;;;;21.16;68.24;96095.78;5069513;28;20079;-67
2022/07/24 06:35:32;;;;;;;8.38;7.70;;;;;;;21.43;66.95;96092.38;5069335;28;20028;-68
2022/07/24 06:37:58;;;;;;;7.68;6.97;;;;;;;21.79;65.34;96088.59;5069724;28;20021;-67
2022/07/24 06:40:23;;;;;;;8.38;7.55;;;;;;;22.13;63.77;96083.28;5069677;28;20082;-67
2022/07/24 06:42:49;;;;;;;10.30;7.55;;;;;;;22.38;62.62;96077.28;5069558;28;20021;-68
2022/07/24 06:45:14;;;;;;;8.10;7.30;;;;;;;22.75;62.40;96075.00;5069438;28;20449;-68
2022/07/24 06:47:41;;;;;;;7.88;7.25;;;;;;;23.06;60.99;96075.34;5069752;28;20037;-68
2022/07/24 06:50:07;;;;;;;9.82;7.18;;;;;;;23.21;60.73;96070.53;5069414;28;20028;-68
2022/07/24 06:52:32;;;;;;;7.45;6.85;;;;;;;23.49;59.82;96069.41;5069224;28;20059;-68
2022/07/24 06:54:58;;;;;;;7.18;6.57;;;;;;;23.74;59.02;96074.81;5069322;28;20103;-69
2022/07/24 06:57:25;;;;;;;7.57;6.90;;;;;;;23.93;58.38;96077.59;5080706;28;20525;-68
2022/07/24 06:59:52;;;;;;;6.90;6.30;;;;;;;24.15;57.01;96079.97;5089686;28;20609;-68
2022/07/24 07:02:19;;;;;;;6.82;6.22;;;;;;;24.43;56.49;96076.84;5089628;28;20469;-68
2022/07/24 07:04:45;;;;;;;7.25;6.65;;;;;;;24.76;54.80;96080.28;5084433;28;20027;-69
2022/07/24 07:07:10;;;;;;;6.75;6.20;;;;;;;25.12;54.24;96072.44;5069198;28;20021;-69
2022/07/24 07:09:35;;;;;;;9.70;6.00;;;;;;;25.37;53.86;96082.31;5069535;28;20029;-69
2022/07/24 07:12:02;;;;;;;7.03;6.38;;;;;;;25.73;52.36;96086.81;5068998;28;20081;-69
2022/07/24 07:14:27;;;;;;;6.90;6.30;;;;;;;25.96;49.92;96076.34;5069215;28;20102;-69
2022/07/24 07:16:53;;;;;;;10.95;5.68;;;;;;;25.91;50.48;96078.94;5069297;28;20495;-69
2022/07/24 07:19:18;;;;;;;11.70;5.90;;;;;;;26.09;50.62;96072.63;5067115;28;20029;-69
2022/07/24 07:21:43;;;;;;;9.10;6.53;;;;;;;26.36;49.37;96080.31;5068884;28;20143;-69
2022/07/24 07:24:09;;;;;;;6.95;6.28;;;;;;;26.43;48.24;96078.34;5069127;28;20025;-69
2022/07/24 07:26:34;;;;;;;5.60;5.20;;;;;;;26.80;47.63;96075.41;5068951;28;20476;-69
2022/07/24 07:28:59;;;;;;;6.85;6.15;;;;;;;27.29;46.41;96069.72;5055383;28;20085;-70
2022/07/24 07:31:26;;;;;;;6.10;5.60;;;;;;;27.69;46.35;96073.47;5069097;28;20086;-69
2022/07/24 07:33:51;;;;;;;6.82;5.70;;;;;;;27.81;44.67;96078.81;5069115;28;20407;-69
2022/07/24 07:36:17;;;;;;;6.20;5.13;;;;;;;27.91;44.15;96072.78;5069019;28;20082;-69
2022/07/24 07:38:42;;;;;;;5.90;5.50;;;;;;;27.88;44.37;96075.97;5069036;28;20032;-70
2022/07/24 07:41:08;;;;;;;6.18;5.75;;;;;;;27.99;43.04;96075.09;5069099;28;20462;-70
2022/07/24 07:43:33;;;;;;;9.35;5.80;;;;;;;27.99;43.00;96069.69;5069572;28;20082;-70
2022/07/24 07:45:58;;;;;;;6.07;5.60;;;;;;;28.13;43.06;96069.34;5072753;28;20191;-70
2022/07/24 07:48:24;;;;;;;5.90;5.40;;;;;;;28.17;41.91;96065.94;5070835;28;20028;-70
2022/07/24 07:50:49;;;;;;;6.00;5.47;;;;;;;28.26;42.56;96068.25;5080685;28;20021;-70
2022/07/24 07:53:15;;;;;;;7.43;5.35;;;;;;;28.58;41.99;96062.25;5074242;28;20025;-70
2022/07/24 07:55:42;;;;;;;5.78;5.38;;;;;;;28.76;41.12;96055.72;5080877;28;20402;-72
2022/07/24 07:58:09;;;;;;;5.53;5.03;;;;;;;28.95;40.30;96064.41;5089707;28;20042;-70
2022/07/24 08:00:35;;;;;;;6.03;5.43;;;;;;;28.93;40.90;96063.84;5093115;28;20036;-68
2022/07/24 08:03:00;;;;;;;5.88;5.43;;;;;;;29.08;40.38;96057.81;5087681;28;20809;-74
2022/07/24 08:05:26;;;;;;;8.80;5.57;;;;;;;29.16;40.41;96053.84;5074065;28;20601;-71
2022/07/24 08:07:51;;;;;;;5.70;5.20;;;;;;;29.29;38.55;96050.75;5081509;28;20483;-70
2022/07/24 08:10:17;;;;;;;5.53;5.03;;;;;;;29.11;39.36;96046.47;5089065;28;20392;-68
2022/07/24 08:12:42;;;;;;;5.70;5.10;;;;;;;29.16;40.54;96037.56;5078198;28;20033;-71
2022/07/24 08:15:08;;;;;;;5.55;5.10;;;;;;;29.54;39.63;96044.00;5077713;28;20026;-70
2022/07/24 08:17:33;;;;;;;5.25;4.85;;;;;;;29.79;38.51;96049.97;5070593;28;20032;-75
2022/07/24 08:19:59;;;;;;;5.45;4.97;;;;;;;29.78;38.52;96043.69;5070591;28;20033;-74
2022/07/24 08:22:24;;;;;;;5.57;5.18;;;;;;;29.89;37.71;96041.91;5073260;28;20031;-72
2022/07/24 08:24:50;;;;;;;5.07;4.68;;;;;;;29.71;39.18;96037.66;5074785;28;20483;-76
2022/07/24 08:27:15;;;;;;;5.80;5.22;;;;;;;30.17;38.33;96034.56;5071201;28;20009;-72
2022/07/24 08:29:40;;;;;;;5.28;4.88;;;;;;;29.44;39.43;96035.78;5070763;28;20024;-73
2022/07/24 08:32:06;;;;;;;5.47;4.97;;;;;;;29.87;38.78;96044.06;5070643;28;20028;-73
2022/07/24 08:34:31;;;;;;;5.15;4.63;;;;;;;29.57;38.55;96043.50;5070507;28;20020;-73
2022/07/24 08:36:56;;;;;;;7.05;5.13;;;;;;;29.98;37.72;96037.66;5070763;28;20040;-73
2022/07/24 08:39:22;;;;;;;6.30;5.35;;;;;;;29.79;38.21;96036.41;5052591;28;20024;-73
2022/07/24 08:41:48;;;;;;;5.10;4.70;;;;;;;30.16;37.75;96032.94;5070454;28;20062;-73
2022/07/24 08:44:13;;;;;;;5.30;4.80;;;;;;;30.14;36.71;96030.50;5070063;28;20051;-72
2022/07/24 08:46:41;;;;;;;5.05;4.68;;;;;;;30.72;35.66;96021.66;5070163;28;20023;-73
2022/07/24 08:49:12;;;;;;;5.00;4.55;;;;;;;30.37;34.91;96022.22;5070636;28;20029;-73
2022/07/24 08:51:40;;;;;;;4.90;4.50;;;;;;;30.19;35.48;96020.75;5070339;28;20032;-72
2022/07/24 08:54:09;;;;;;;4.28;3.97;;;;;;;30.79;33.79;96020.63;5070158;28;20438;-73
2022/07/24 08:56:38;;;;;;;5.40;4.90;;;;;;;29.82;35.98;96027.75;5072824;28;20047;-71
2022/07/24 08:59:04;;;;;;;5.03;4.63;;;;;;;30.05;36.64;96018.47;5090772;28;20402;-71
2022/07/24 09:01:29;;;;;;;5.15;4.70;;;;;;;30.76;35.96;96019.25;5090747;28;20034;-72
2022/07/24 09:03:55;;;;;;;6.40;5.80;;;;;;;30.37;36.46;96016.78;5090319;28;20506;-71
2022/07/24 09:06:21;;;;;;;7.45;4.72;;;;;;;30.39;36.85;96022.78;5089995;28;20030;-72
2022/07/24 09:09:02;;;;;;;6.15;5.57;;;;;;;30.70;37.48;96017.59;5090540;28;20024;-72
2022/07/24 09:11:30;;;;;;;5.45;4.95;;;;;;;31.63;34.71;96022.59;5072400;28;20056;-72
2022/07/24 09:14:46;;;;;;;6.38;5.43;;;;;;;31.65;34.14;96013.06;5090175;28;20035;-73
2022/07/24 09:16:47;;;;;;;6.00;5.40;;;;;;;32.17;34.58;96013.13;5075484;28;20032;-74
2022/07/24 09:19:13;;;;;;;5.65;5.15;;;;;;;32.14;35.05;96013.66;5082289;28;20020;-72
2022/07/24 09:21:40;;;;;;;5.13;4.72;;;;;;;32.12;35.09;96013.13;5082282;28;20037;-72
2022/07/24 09:24:14;;;;;;;11.55;5.13;;;;;;;32.05;35.07;96009.88;5075951;28;20399;-72
2022/07/24 09:26:53;;;;;;;5.18;4.70;;;;;;;31.87;34.67;96014.75;5070889;28;20028;-70
2022/07/24 09:29:20;;;;;;;5.30;4.80;;;;;;;32.04;34.27;96013.69;5069715;28;20476;-74
2022/07/24 09:32:04;;;;;;;4.78;4.38;;;;;;;32.03;34.78;96012.03;5069586;28;20039;-74
2022/07/24 09:34:38;;;;;;;6.50;4.28;;;;;;;32.24;35.00;96004.66;5058826;28;20401;-74
2022/07/24 09:37:06;;;;;;;4.97;4.57;;;;;;;32.73;33.73;96003.25;5069719;28;20105;-73
2022/07/24 09:39:34;;;;;;;5.57;5.07;;;;;;;32.86;33.34;96005.41;5069765;28;20103;-74
2022/07/24 09:42:02;;;;;;;4.97;4.57;;;;;;;32.68;32.00;95995.09;5069818;28;20041;-71
2022/07/24 09:44:29;;;;;;;5.70;5.25;;;;;;;32.13;35.70;95990.25;5068840;28;20107;-74
2022/07/24 09:47:10;;;;;;;6.95;4.97;;;;;;;33.06;32.08;95995.56;5069417;28;20528;-72
2022/07/24 09:49:37;;;;;;;5.00;4.60;;;;;;;32.29;33.19;95991.06;5067941;28;20016;-74
2022/07/24 09:52:05;;;;;;;5.30;4.80;;;;;;;32.45;32.92;95983.72;5069777;28;20020;-75
2022/07/24 09:54:36;;;;;;;6.43;4.80;;;;;;;32.35;32.01;95987.28;5068962;28;20021;-74
2022/07/24 09:57:24;;;;;;;7.13;5.00;;;;;;;32.04;33.14;95994.63;5076985;28;20036;-74
2022/07/24 10:00:03;;;;;;;5.18;4.78;;;;;;;32.29;33.27;95980.19;5089329;28;20016;-75
2022/07/24 10:02:33;;;;;;;5.50;4.45;;;;;;;32.15;32.34;95985.34;5089291;28;20028;-74
2022/07/24 10:05:01;;;;;;;5.60;5.10;;;;;;;32.37;32.54;95986.97;5088973;28;20027;-75
2022/07/24 10:07:28;;;;;;;5.03;4.63;;;;;;;32.40;32.49;95986.47;5088811;28;20565;-73
2022/07/24 10:09:57;;;;;;;5.03;4.55;;;;;;;32.48;32.69;95982.34;5089367;28;20024;-74
2022/07/24 10:12:29;;;;;;;7.80;5.22;;;;;;;32.30;32.65;95984.53;5089401;28;20495;-74
2022/07/24 10:14:56;;;;;;;5.00;4.60;;;;;;;32.26;33.12;95984.25;5088788;28;20943;-75
2022/07/24 10:17:39;;;;;;;5.18;4.75;;;;;;;32.35;32.75;95984.56;5089122;28;20463;-75
2022/07/24 10:20:07;;;;;;;4.80;4.40;;;;;;;32.74;32.39;95977.63;5070955;28;20380;-74
2022/07/24 10:22:54;;;;;;;5.85;5.35;;;;;;;32.53;31.81;95974.97;5089187;28;20563;-73
2022/07/24 10:25:24;;;;;;;5.10;4.60;;;;;;;32.49;31.32;95973.06;5088545;28;20024;-73
2022/07/24 10:27:54;;;;;;;6.30;5.40;;;;;;;33.07;31.66;95974.53;5088897;28;20016;-73
2022/07/24 10:30:20;;;;;;;5.93;5.40;;;;;;;33.04;31.04;95981.34;5088929;28;20036;-73
2022/07/24 10:32:46;;;;;;;7.03;6.43;;;;;;;33.41;31.30;95979.28;5088722;28;20031;-73
2022/07/24 10:35:17;;;;;;;5.47;4.90;;;;;;;33.58;30.66;95974.28;5088354;28;20020;-73
2022/07/24 10:37:48;;;;;;;5.93;5.25;;;;;;;33.22;30.15;95968.19;5088894;28;20432;-73
2022/07/24 10:40:24;;;;;;;6.03;4.55;;;;;;;33.68;30.00;95967.94;5088588;28;20036;-74
2022/07/24 10:43:16;;;;;;;4.45;4.15;;;;;;;33.51;30.95;95964.78;5088276;28;20028;-74
2022/07/24 10:45:54;;;;;;;6.13;5.28;;;;;;;34.08;29.91;95959.75;5079717;28;20115;-73
2022/07/24 10:48:19;;;;;;;5.03;4.55;;;;;;;34.03;29.94;95957.03;5088514;28;20028;-73
2022/07/24 10:51:05;;;;;;;4.88;4.40;;;;;;;34.17;29.25;95949.00;5088394;28;20066;-73
2022/07/24 10:53:37;;;;;;;5.32;4.93;;;;;;;34.47;28.83;95944.31;5088170;28;20059;-73
2022/07/24 10:56:38;;;;;;;4.65;4.35;;;;;;;34.35;29.34;95941.16;5087401;28;20446;-73
2022/07/24 10:59:09;;;;;;;4.82;4.43;;;;;;;34.19;28.80;95941.34;5095391;28;20067;-73
2022/07/24 11:01:36;;;;;;;4.88;4.30;;;;;;;34.61;28.98;95933.53;5088393;28;20034;-73
2022/07/24 11:04:23;;;;;;;4.35;4.07;;;;;;;34.89;28.04;95930.22;5088177;28;20024;-72
2022/07/24 11:07:07;;;;;;;7.35;4.28;;;;;;;33.77;29.21;95932.66;5087318;28;20035;-73
2022/07/24 11:09:59;;;;;;;4.70;4.30;;;;;;;34.55;28.48;95926.50;5088418;28;20555;-72
2022/07/24 11:12:32;;;;;;;6.60;4.50;;;;;;;33.72;29.70;95917.16;5067035;28;20024;-73
2022/07/24 11:17:47;;;;;;;6.80;4.57;;;;;;;35.34;26.76;95917.03;5088084;28;20081;-73
2022/07/24 11:20:14;;;;;;;6.53;3.90;;;;;;;34.78;27.39;95902.97;5087643;28;20024;-73
2022/07/24 11:22:51;;;;;;;4.03;3.63;;;;;;;34.70;28.00;95906.38;5088181;28;20024;-73
2022/07/24 11:25:22;;;;;;;4.18;3.78;;;;;;;35.18;26.68;95908.25;5087678;28;20028;-72
2022/07/24 11:27:58;;;;;;;6.78;4.40;;;;;;;35.02;26.21;95906.81;5087919;28;20115;-72
2022/07/24 11:30:28;;;;;;;4.80;4.35;;;;;;;35.20;25.65;95899.72;5088018;28;20024;-73
2022/07/24 11:32:55;;;;;;;4.75;4.40;;;;;;;35.34;26.29;95892.41;5088001;28;20399;-74
2022/07/24 11:35:35;;;;;;;6.13;5.53;;;;;;;35.76;25.23;95889.84;5087584;28;20600;-74
2022/07/24 11:38:03;;;;;;;4.20;3.90;;;;;;;36.22;26.14;95885.50;5087905;28;20106;-73